FLIGHT DETAILS
Pilot: SER005 Jeferson Angelo Raimundo Aircraft: B738X SERRANA PT-SGC Distance: 245NM
Departure SWSI Arrival SBCY Duration 0.78
Validation Validated Type Regular Tail Number PT-SGC
ZFW 47054 Block Fuel/Initial FOB 2,698/0 Flight Fuel 2,406
Passengers 185 Cargo 0 Alternate SBCG
Departure Time Cruise Speed Flight Level FL240
Flight Type IFR Aircraft Type B738SFP Weight Unit Kg
Date 04-02-19 Pilot Comments Network IVAO
Crashed No Validator Comments Flight Rating 100

 ROUTE
ROUTE DCT DORNO DCT
REMARKS
 FLIGHT FAILURES
Crashed OK Beacon off & Engine Running OK KIAS Above 250 below 10000 FT Fail
Lights OFF below 10000 FT Fail Lights ON above 10000 FT Fail Stall OK
Overspeed OK Flight paused OK Refueling OK
Slew detected OK Taxi & Taxi lights off Fail Take off & lights off OK
Landing & lights off OK Landed in not planned airport OK Taxi Speed Fail
Wrong altimeter in Take off OK Wrong altimeter in Landing OK
 LANDING ANALYSIS
Landing wind 149º/6 kt Landing heading 246
Landing VS: -281.43 ft/min Landing IAS: 121.2 kt
Landing Force G 1 G Landing Bank -1.8
Landing Pitch 3.3 Landing Flaps 46
Navigation Lights ON Landing Lights ON
Beacon Lights ON Strobe Lights OFF
 FLIGHT MAP
 ALTITUDE CHART
 FLIGHT FINANCIAL REPORT
Number of PAX:185 .Price per PAX:884 163,540.00
Serviço de solo -500.00
Parqueamento -1,000.00
Alimentação Passageiros(25). Number of PAX: 185 -4,625.00
Gastos com combustível(3.9). Fuel used: 2697.88 -10,521.70
Taxas Aeroportuárias -112.00
TOTAL 146,781.27
 MAIN EVENTS
DATE EVENTIASALTITUDE
2019-02-04 18:30:28 SIM ACARS version 1.4.161229
2019-02-04 18:30:28 BOARDING61229
2019-02-04 18:30:28 STARTING ENGINE 1 61229
2019-02-04 18:30:28 STARTING ENGINE 2 61229
2019-02-04 18:35:21 FLAPS EXTENSION 7 % 01230
2019-02-04 18:35:21 FLAPS EXTENSION 9 % 01230
2019-02-04 18:35:21 FLAPS EXTENSION 12 % 01230
2019-02-04 18:35:21 FLAPS EXTENSION 22 % 01230
2019-02-04 18:35:21 FLAPS EXTENSION 25 % 01230
2019-02-04 18:35:21 FLAPS EXTENSION 33 % 01230
2019-02-04 18:35:22 FLAPS EXTENSION 34 % 01230
2019-02-04 18:35:22 FLAPS EXTENSION 38 % 01230
2019-02-04 18:35:22 FLAPS EXTENSION 41 % 01230
2019-02-04 18:35:22 FLAPS EXTENSION 43 % 01230
2019-02-04 18:35:23 FLAPS EXTENSION 42 % 01230
2019-02-04 18:35:23 FLAPS EXTENSION 41 % 01230
2019-02-04 18:35:23 FLAPS EXTENSION 40 % 01230
2019-02-04 18:35:30 FLAPS EXTENSION 40 % 01230
2019-02-04 18:35:30 FLAPS EXTENSION 39 % 01230
2019-02-04 18:35:30 FLAPS EXTENSION 38 % 01230
2019-02-04 18:35:30 FLAPS EXTENSION 38 % 01230
2019-02-04 18:35:30 FLAPS EXTENSION 38 % 01230
2019-02-04 18:35:30 FLAPS EXTENSION 37 % 01230
2019-02-04 18:35:32 FLAPS EXTENSION 37 % 01230
2019-02-04 18:43:06 TAXI TO THE RWY 31230
2019-02-04 18:43:06 TAXING WITH TAXI LIGHTS OFF31230
2019-02-04 18:47:30 ROLLING FOR TAKE OFF361235
2019-02-04 18:47:50 TAKE OFF1361235
2019-02-04 18:48:05 GEAR UP1531672
2019-02-04 18:49:45 FLAPS EXTENSION 14 % 1525754
2019-02-04 18:49:45 FLAPS EXTENSION 5 % 1525755
2019-02-04 18:49:45 FLAPS EXTENSION 3 % 1525756
2019-02-04 18:49:45 FLAPS EXTENSION 0 % 1525757
2019-02-04 18:52:11 LIGHTS ON ABOVE 10000 ft16910506
2019-02-04 18:57:10 DESCEND32618063
2019-02-04 18:58:43 IAS ABOVE 250 KNOTS BELOW 10000 ft3359489
2019-02-04 18:58:43 LIGHTS OFF BELOW 10000 ft3359489
2019-02-04 18:59:20 CLIMBING3128917
2019-02-04 19:08:40 CRUISE32623917
2019-02-04 19:15:50 DESCEND32523367
2019-02-04 19:26:20 CRUISE2002405
2019-02-04 19:26:23 FLAPS EXTENSION 7 % 1982413
2019-02-04 19:26:23 FLAPS EXTENSION 10 % 1982414
2019-02-04 19:26:23 FLAPS EXTENSION 11 % 1982414
2019-02-04 19:26:32 FLAPS EXTENSION 12 % 1902436
2019-02-04 19:27:44 FLAPS EXTENSION 18 % 1712429
2019-02-04 19:27:44 FLAPS EXTENSION 20 % 1712429
2019-02-04 19:27:44 FLAPS EXTENSION 21 % 1712429
2019-02-04 19:27:45 FLAPS EXTENSION 22 % 1712429
2019-02-04 19:27:45 FLAPS EXTENSION 23 % 1712429
2019-02-04 19:27:45 FLAPS EXTENSION 24 % 1712429
2019-02-04 19:27:45 FLAPS EXTENSION 25 % 1712430
2019-02-04 19:27:45 FLAPS EXTENSION 25 % 1712430
2019-02-04 19:27:46 FLAPS EXTENSION 25 % 1702432
2019-02-04 19:28:20 DESCEND1722450
2019-02-04 19:28:20 FLAPS EXTENSION 28 % 1712448
2019-02-04 19:28:20 FLAPS EXTENSION 30 % 1712447
2019-02-04 19:28:20 FLAPS EXTENSION 31 % 1712446
2019-02-04 19:28:21 FLAPS EXTENSION 32 % 1712446
2019-02-04 19:28:21 FLAPS EXTENSION 35 % 1712445
2019-02-04 19:28:21 FLAPS EXTENSION 36 % 1712444
2019-02-04 19:28:21 FLAPS EXTENSION 37 % 1712443
2019-02-04 19:28:21 FLAPS EXTENSION 39 % 1712442
2019-02-04 19:28:21 FLAPS EXTENSION 40 % 1712441
2019-02-04 19:28:21 FLAPS EXTENSION 41 % 1712440
2019-02-04 19:28:21 FLAPS EXTENSION 42 % 1712439
2019-02-04 19:28:21 FLAPS EXTENSION 43 % 1712439
2019-02-04 19:28:22 FLAPS EXTENSION 46 % 1712438
2019-02-04 19:28:22 FLAPS EXTENSION 49 % 1712437
2019-02-04 19:28:22 FLAPS EXTENSION 52 % 1712436
2019-02-04 19:28:22 FLAPS EXTENSION 54 % 1712436
2019-02-04 19:28:22 FLAPS EXTENSION 54 % 1712435
2019-02-04 19:28:22 FLAPS EXTENSION 58 % 1712434
2019-02-04 19:28:23 FLAPS EXTENSION 58 % 1702432
2019-02-04 19:28:23 FLAPS EXTENSION 55 % 1702432
2019-02-04 19:28:23 FLAPS EXTENSION 53 % 1702431
2019-02-04 19:28:23 FLAPS EXTENSION 53 % 1702431
2019-02-04 19:28:23 FLAPS EXTENSION 52 % 1702430
2019-02-04 19:28:23 FLAPS EXTENSION 52 % 1702430
2019-02-04 19:28:24 FLAPS EXTENSION 51 % 1702430
2019-02-04 19:28:24 FLAPS EXTENSION 51 % 1702430
2019-02-04 19:28:26 GEAR DOWN1692432
2019-02-04 19:28:28 FLAPS EXTENSION 51 % 1672437
2019-02-04 19:28:29 FLAPS EXTENSION 54 % 1672437
2019-02-04 19:28:29 FLAPS EXTENSION 62 % 1672437
2019-02-04 19:28:29 FLAPS EXTENSION 62 % 1672437
2019-02-04 19:28:29 FLAPS EXTENSION 43 % 1672437
2019-02-04 19:28:29 FLAPS EXTENSION 38 % 1672437
2019-02-04 19:28:30 FLAPS EXTENSION 35 % 1672437
2019-02-04 19:28:30 FLAPS EXTENSION 32 % 1672437
2019-02-04 19:28:30 FLAPS EXTENSION 32 % 1672437
2019-02-04 19:28:30 FLAPS EXTENSION 38 % 1672437
2019-02-04 19:28:30 FLAPS EXTENSION 41 % 1672437
2019-02-04 19:28:30 FLAPS EXTENSION 42 % 1672437
2019-02-04 19:28:30 FLAPS EXTENSION 43 % 1672437
2019-02-04 19:28:32 FLAPS EXTENSION 61 % 1682436
2019-02-04 19:28:32 FLAPS EXTENSION 73 % 1682436
2019-02-04 19:28:32 FLAPS EXTENSION 84 % 1682436
2019-02-04 19:28:32 FLAPS EXTENSION 89 % 1682436
2019-02-04 19:28:32 FLAPS EXTENSION 92 % 1682436
2019-02-04 19:28:33 FLAPS EXTENSION 95 % 1682436
2019-02-04 19:28:33 FLAPS EXTENSION 96 % 1692436
2019-02-04 19:28:33 FLAPS EXTENSION 96 % 1692436
2019-02-04 19:28:34 FLAPS EXTENSION 87 % 1692432
2019-02-04 19:28:45 FLAPS EXTENSION 100 % 1582452
2019-02-04 19:28:50 CRUISE1552446
2019-02-04 19:29:50 DESCEND1242202
2019-02-04 19:31:50 CLIMBING1241489
2019-02-04 19:33:40 CRUISE1461547
2019-02-04 19:34:30 DESCEND1331094
2019-02-04 19:35:27 LANDING121624
2019-02-04 19:35:45 FLAPS EXTENSION 62 % 31608
2019-02-04 19:35:46 FLAPS EXTENSION 49 % 31608
2019-02-04 19:35:46 FLAPS EXTENSION 32 % 30608
2019-02-04 19:35:46 FLAPS EXTENSION 0 % 30608
2019-02-04 19:35:49 TAXI TO THE GATE20608
2019-02-04 19:36:04 TAXI SPEED ABOVE 25 KTS28606
 ACARS DATA
There was an error running the query [The SELECT would examine more than MAX_JOIN_SIZE rows; check your WHERE and use SET SQL_BIG_SELECTS=1 or SET MAX_JOIN_SIZE=# if the SELECT is okay]